Time;durP1;ratioP1;P1;durP2;ratioP2;P2;SDS_P1;SDS_P2;PMS_P1;PMS_P2;Temp;Humidity;BMP_temperature;BMP_pressure;BME280_temperature;BME280_humidity;BME280_pressure;Samples;Min_cycle;Max_cycle;Signal;HPM_P1;HPM_P2
2023/04/09 00:00:12;;;;;;;32.03;19.80;;;1.20;99.90;1.90;94636.00;;;;7400040;19;20660;-78
2023/04/09 00:02:49;;;;;;;26.83;16.70;;;1.30;1.00;1.70;94632.00;;;;7400500;19;20242;-77
2023/04/09 00:05:24;;;;;;;23.40;16.83;;;1.20;1.00;1.60;94625.00;;;;7401099;19;20132;-77
2023/04/09 00:07:57;;;;;;;30.10;19.03;;;1.20;1.00;1.70;94625.00;;;;7400887;19;20133;-79
2023/04/09 00:10:31;;;;;;;29.43;18.77;;;1.20;1.00;1.60;94609.00;;;;7401699;19;20135;-77
2023/04/09 00:13:05;;;;;;;30.73;20.27;;;1.20;1.00;1.80;94621.00;;;;7399907;19;20476;-78
2023/04/09 00:15:39;;;;;;;32.97;19.13;;;1.20;1.00;1.60;94563.00;;;;7400112;19;20528;-78
2023/04/09 00:18:07;;;;;;;34.93;19.83;;;1.20;1.00;1.60;94611.00;;;;7398309;19;20231;-79
2023/04/09 00:20:43;;;;;;;28.20;18.07;;;1.10;1.00;1.40;94602.00;;;;7396726;19;20147;-78
2023/04/09 00:23:10;;;;;;;27.87;18.67;;;1.10;1.00;1.40;94554.00;;;;7398282;19;20125;-78
2023/04/09 00:25:45;;;;;;;27.77;18.30;;;1.00;1.00;1.20;94533.00;;;;7398266;19;20124;-78
2023/04/09 00:28:12;;;;;;;27.27;18.47;;;0.90;1.00;1.20;94571.00;;;;7395087;19;20164;-80
2023/04/09 00:30:46;;;;;;;32.30;17.57;;;0.80;1.00;1.30;94604.00;;;;7396633;19;20136;-78
2023/04/09 00:33:20;;;;;;;30.20;19.57;;;0.80;1.00;1.30;94601.00;;;;7386894;19;20630;-78
2023/04/09 00:35:53;;;;;;;32.30;19.27;;;0.80;1.00;1.40;94550.00;;;;7395978;19;20129;-77
2023/04/09 00:38:27;;;;;;;39.20;20.43;;;0.80;1.00;1.30;94574.00;;;;7395334;19;20519;-77
2023/04/09 00:41:01;;;;;;;29.67;18.83;;;0.90;1.00;1.10;94599.00;;;;7393171;19;20591;-76
2023/04/09 00:43:30;;;;;;;33.40;19.93;;;0.80;1.00;1.20;94524.00;;;;7396749;19;20157;-76
2023/04/09 00:45:59;;;;;;;34.00;20.23;;;0.70;1.00;1.20;94594.00;;;;7396187;19;20140;-76
2023/04/09 00:48:33;;;;;;;34.03;20.17;;;0.70;1.00;1.10;94550.00;;;;7391588;19;20517;-77
2023/04/09 00:51:00;;;;;;;31.20;19.83;;;0.60;1.00;1.10;94607.00;;;;7394331;19;20185;-79
2023/04/09 00:53:34;;;;;;;33.60;19.90;;;0.60;1.00;1.20;94605.00;;;;7399133;19;20461;-76
2023/04/09 00:56:03;;;;;;;38.50;21.07;;;0.60;1.00;1.20;94598.00;;;;7399265;19;20608;-77
2023/04/09 00:58:40;;;;;;;34.50;20.67;;;0.60;1.00;1.20;94578.00;;;;7396967;19;20152;-78
2023/04/09 01:01:09;;;;;;;38.63;20.63;;;0.60;1.00;1.10;94610.00;;;;7397231;19;20547;-76
2023/04/09 01:03:50;;;;;;;35.30;21.40;;;0.60;1.00;1.30;94544.00;;;;7398752;19;20125;-76
2023/04/09 01:06:48;;;;;;;35.60;20.27;;;0.60;1.00;1.20;94536.00;;;;7398358;19;20129;-74
2023/04/09 01:09:50;;;;;;;38.17;20.83;;;0.60;1.00;1.20;94580.00;;;;7395906;19;20156;-77
2023/04/09 01:12:34;;;;;;;39.07;21.93;;;0.70;1.00;1.10;94557.00;;;;7394897;19;20149;-76
2023/04/09 01:15:16;;;;;;;40.10;22.67;;;0.70;1.00;1.10;94603.00;;;;7398791;19;20166;-75
2023/04/09 01:18:26;;;;;;;40.07;23.23;;;0.60;1.00;1.10;94598.00;;;;7403550;19;20228;-77
2023/04/09 01:21:13;;;;;;;39.47;23.40;;;0.60;1.00;1.00;94521.00;;;;7396640;19;20142;-75
2023/04/09 01:23:52;;;;;;;39.17;23.53;;;0.50;1.00;1.10;94593.00;;;;7405059;19;20132;-76
2023/04/09 01:26:57;;;;;;;41.23;23.43;;;0.50;1.00;1.10;94560.00;;;;7402587;19;20133;-77
2023/04/09 01:29:34;;;;;;;38.37;22.80;;;0.50;1.00;1.10;94596.00;;;;7402640;19;20455;-74
2023/04/09 01:32:04;;;;;;;47.07;24.10;;;0.50;1.00;1.10;94594.00;;;;7403366;19;20640;-75
2023/04/09 01:34:41;;;;;;;47.00;25.10;;;0.50;1.00;1.20;94593.00;;;;7403396;19;20125;-76
2023/04/09 01:37:12;;;;;;;47.30;25.43;;;0.50;1.00;1.30;94533.00;;;;7401444;19;20231;-74
2023/04/09 01:39:45;;;;;;;49.77;25.67;;;0.60;1.00;1.30;94552.00;;;;7402486;19;20587;-74
2023/04/09 01:42:20;;;;;;;46.57;25.20;;;0.70;1.00;1.40;94592.00;;;;7399601;19;20149;-75
2023/04/09 01:44:54;;;;;;;48.13;24.67;;;0.80;1.00;1.30;94583.00;;;;7404193;19;20181;-76
2023/04/09 01:47:28;;;;;;;51.13;26.20;;;0.80;1.00;1.40;94563.00;;;;7398721;19;20133;-75
2023/04/09 01:49:56;;;;;;;51.23;26.20;;;0.80;1.00;1.50;94557.00;;;;7401264;19;20129;-75
2023/04/09 01:52:30;;;;;;;46.73;24.83;;;0.80;1.00;1.50;94601.00;;;;7403737;19;20154;-75
2023/04/09 01:55:05;;;;;;;47.63;26.07;;;0.90;1.00;1.60;94544.00;;;;7403779;19;20136;-74
2023/04/09 01:57:33;;;;;;;49.77;27.07;;;0.90;2.30;1.60;94551.00;;;;7401548;19;20483;-76
2023/04/09 02:00:09;;;;;;;51.17;26.77;;;1.00;15.40;1.70;94591.00;;;;7398238;19;20717;-76
2023/04/09 02:03:02;;;;;;;47.63;25.03;;;1.10;25.90;1.70;94595.00;;;;7400246;19;20200;-76
2023/04/09 02:05:50;;;;;;;50.57;28.00;;;1.10;37.90;1.90;94588.00;;;;7402415;19;20129;-75
2023/04/09 02:08:21;;;;;;;51.07;27.33;;;1.10;51.50;1.90;94603.00;;;;7403530;19;20136;-75
2023/04/09 02:11:02;;;;;;;50.13;26.57;;;1.30;68.80;2.00;94599.00;;;;7402288;19;20149;-76
2023/04/09 02:13:35;;;;;;;54.43;28.87;;;1.40;89.30;2.10;94581.00;;;;7398409;19;20486;-76
2023/04/09 02:16:13;;;;;;;57.97;29.83;;;1.50;99.90;2.20;94601.00;;;;7402965;19;20591;-76
2023/04/09 02:18:40;;;;;;;52.53;27.93;;;1.50;99.90;2.20;94561.00;;;;7402811;19;20148;-75
2023/04/09 02:21:13;;;;;;;46.93;26.23;;;1.60;99.90;2.10;94587.00;;;;7401401;19;20136;-75
2023/04/09 02:23:40;;;;;;;48.63;26.10;;;1.60;99.90;2.20;94581.00;;;;7400802;19;20129;-77
2023/04/09 02:26:14;;;;;;;53.30;28.20;;;1.70;99.90;2.20;94589.00;;;;7398450;19;20671;-78
2023/04/09 02:28:48;;;;;;;48.43;27.07;;;1.70;99.90;2.30;94588.00;;;;7399861;19;20129;-76
2023/04/09 02:31:22;;;;;;;49.60;27.37;;;1.70;99.90;2.30;94572.00;;;;7402472;19;20121;-74
2023/04/09 02:33:56;;;;;;;49.47;27.10;;;1.70;99.90;2.30;94583.00;;;;7402376;19;20600;-76
2023/04/09 02:36:23;;;;;;;47.10;25.37;;;1.70;99.90;2.30;94572.00;;;;7400989;19;20129;-77
2023/04/09 02:38:57;;;;;;;48.77;26.67;;;1.70;99.90;2.30;94581.00;;;;7400757;19;20129;-75
2023/04/09 02:41:24;;;;;;;53.80;28.00;;;1.80;99.90;2.40;94571.00;;;;7398013;19;20152;-76
2023/04/09 02:43:51;;;;;;;50.23;26.30;;;1.80;99.90;2.40;94531.00;;;;7400307;19;20171;-74
2023/04/09 02:46:25;;;;;;;51.17;26.83;;;1.90;99.90;2.40;94578.00;;;;7401294;19;20145;-74
2023/04/09 02:48:52;;;;;;;50.03;26.93;;;1.90;99.90;2.40;94560.00;;;;7395554;19;20794;-76
2023/04/09 02:51:26;;;;;;;46.83;28.00;;;1.90;99.90;2.50;94579.00;;;;7399764;19;20148;-74
2023/04/09 02:53:53;;;;;;;43.47;24.90;;;1.90;99.90;2.30;94584.00;;;;7396768;19;20702;-76
2023/04/09 02:56:27;;;;;;;45.53;26.03;;;1.90;99.90;2.30;94580.00;;;;7399740;19;20136;-76
2023/04/09 02:58:54;;;;;;;50.97;26.90;;;1.80;99.90;2.30;94569.00;;;;7398556;19;20129;-75
2023/04/09 03:01:24;;;;;;;50.07;25.93;;;1.80;99.90;2.20;94585.00;;;;7395806;19;20160;-76
2023/04/09 03:04:04;;;;;;;51.90;26.47;;;1.80;99.90;2.20;94575.00;;;;7401571;19;20591;-76
2023/04/09 03:06:31;;;;;;;47.23;26.23;;;1.80;99.90;2.10;94559.00;;;;7401350;19;20129;-77
2023/04/09 03:09:04;;;;;;;44.57;24.20;;;1.70;99.90;2.10;94587.00;;;;7400752;19;20156;-79
2023/04/09 03:11:45;;;;;;;48.40;24.63;;;1.70;99.90;2.10;94575.00;;;;7399386;19;20144;-77
2023/04/09 03:14:19;;;;;;;48.50;26.70;;;1.70;99.90;2.10;94581.00;;;;7399634;19;20139;-75
2023/04/09 03:16:46;;;;;;;48.87;26.97;;;1.70;99.90;2.20;94562.00;;;;7400847;19;20133;-75
2023/04/09 03:19:21;;;;;;;49.37;25.60;;;1.70;99.90;2.10;94544.00;;;;7400376;19;20116;-75
2023/04/09 03:21:56;;;;;;;44.33;25.40;;;1.70;99.90;2.10;94496.00;;;;7399334;19;20133;-76
2023/04/09 03:24:37;;;;;;;42.40;24.50;;;1.80;99.90;2.00;94556.00;;;;7398691;19;20125;-76
2023/04/09 03:27:04;;;;;;;44.03;25.40;;;1.80;99.90;2.10;94570.00;;;;7398668;19;20532;-76
2023/04/09 03:29:37;;;;;;;48.33;24.80;;;1.70;99.90;2.10;94514.00;;;;7397232;19;20464;-76
2023/04/09 03:32:04;;;;;;;44.30;24.80;;;1.70;99.90;2.10;94530.00;;;;7397776;19;20155;-78
2023/04/09 03:34:38;;;;;;;44.90;24.03;;;1.70;99.90;2.10;94570.00;;;;7399017;19;20173;-74
2023/04/09 03:37:07;;;;;;;46.90;24.33;;;1.70;99.90;1.90;94516.00;;;;7398685;19;20146;-74
2023/04/09 03:39:40;;;;;;;45.77;24.73;;;1.70;99.90;1.90;94559.00;;;;7400157;19;20117;-76
2023/04/09 03:42:07;;;;;;;49.37;25.40;;;1.60;99.90;1.90;94558.00;;;;7397252;19;20592;-75
2023/04/09 03:44:41;;;;;;;45.20;24.53;;;1.60;99.90;1.80;94552.00;;;;7397617;19;20154;-75
2023/04/09 03:47:11;;;;;;;48.30;25.33;;;1.60;99.90;1.70;94554.00;;;;7398476;19;20136;-74
2023/04/09 03:49:44;;;;;;;50.87;27.37;;;1.60;99.90;1.80;94554.00;;;;7400269;19;20467;-74
2023/04/09 03:52:11;;;;;;;48.10;26.47;;;1.50;99.90;1.60;94559.00;;;;7397853;19;20166;-74
2023/04/09 03:54:40;;;;;;;48.53;25.80;;;1.40;99.90;1.60;94551.00;;;;7397743;19;20149;-79
2023/04/09 03:57:14;;;;;;;49.70;27.77;;;1.30;99.90;1.60;94475.00;;;;7398273;19;20185;-75
2023/04/09 03:59:41;;;;;;;49.03;25.77;;;1.20;99.90;1.50;94513.00;;;;7394686;19;20129;-74
2023/04/09 04:02:21;;;;;;;51.80;27.97;;;1.20;99.90;1.70;94564.00;;;;7396868;19;20194;-75
2023/04/09 04:05:01;;;;;;;52.63;26.23;;;1.20;99.90;1.60;94518.00;;;;7398829;19;20472;-74
2023/04/09 04:07:35;;;;;;;53.10;27.23;;;1.20;99.90;1.60;94572.00;;;;7398947;19;20484;-75
2023/04/09 04:10:05;;;;;;;50.73;26.43;;;1.10;99.90;1.50;94569.00;;;;7397206;19;20125;-76
2023/04/09 04:12:41;;;;;;;48.93;27.00;;;1.20;99.90;1.60;94573.00;;;;7395694;19;20133;-75
2023/04/09 04:15:08;;;;;;;46.77;26.87;;;1.20;99.90;1.60;94542.00;;;;7399491;19;20619;-75
2023/04/09 04:17:36;;;;;;;62.77;29.57;;;1.30;99.90;1.80;94571.00;;;;7399155;19;20215;-76
2023/04/09 04:20:10;;;;;;;58.63;29.97;;;1.30;99.90;1.90;94549.00;;;;7399180;19;20133;-74
2023/04/09 04:22:37;;;;;;;60.13;29.77;;;1.40;99.90;1.90;94518.00;;;;7396178;19;20141;-75
2023/04/09 04:25:10;;;;;;;56.07;29.70;;;1.40;99.90;2.00;94576.00;;;;7394985;19;20133;-76
2023/04/09 04:27:44;;;;;;;54.50;30.33;;;1.60;99.90;2.10;94494.00;;;;7397821;19;20497;-76
2023/04/09 04:30:11;;;;;;;58.50;29.97;;;1.60;99.90;2.00;94565.00;;;;7398356;19;20113;-75
2023/04/09 04:32:45;;;;;;;59.90;28.73;;;1.70;99.90;1.90;94568.00;;;;7398411;19;20135;-74
2023/04/09 04:35:12;;;;;;;57.03;29.87;;;1.70;99.90;1.90;94533.00;;;;7398131;19;20576;-74
2023/04/09 04:37:50;;;;;;;54.53;29.20;;;1.70;99.90;1.90;94491.00;;;;7396669;19;20141;-74
2023/04/09 04:40:17;;;;;;;56.47;29.43;;;1.60;99.90;1.80;94566.00;;;;7396159;19;20148;-75
2023/04/09 04:42:50;;;;;;;60.87;29.30;;;1.50;99.90;1.70;94501.00;;;;7395033;19;20156;-75
2023/04/09 04:45:24;;;;;;;56.43;29.33;;;1.40;99.90;1.60;94568.00;;;;7396608;19;20163;-75
2023/04/09 04:47:51;;;;;;;56.47;30.93;;;1.30;99.90;1.50;94577.00;;;;7393093;19;20152;-75
2023/04/09 04:50:18;;;;;;;57.63;29.53;;;1.20;99.90;1.50;94572.00;;;;7402818;19;20136;-76
2023/04/09 04:52:52;;;;;;;56.50;29.43;;;1.10;99.90;1.50;94552.00;;;;7406173;19;20160;-75
2023/04/09 04:55:19;;;;;;;56.07;27.87;;;1.00;99.90;1.50;94559.00;;;;7404359;19;20619;-76
2023/04/09 04:57:55;;;;;;;60.50;29.07;;;1.10;99.90;1.30;94537.00;;;;7405096;19;20148;-77
2023/04/09 05:00:30;;;;;;;54.70;27.83;;;1.00;99.90;1.20;94556.00;;;;7402113;19;20197;-76
2023/04/09 05:03:04;;;;;;;58.87;29.07;;;1.00;99.90;1.20;94577.00;;;;7401524;19;20198;-76
2023/04/09 05:05:38;;;;;;;56.30;28.30;;;0.90;99.90;1.20;94577.00;;;;7401340;19;20139;-76
2023/04/09 05:08:06;;;;;;;51.97;28.80;;;0.80;99.90;1.10;94559.00;;;;7403026;19;20175;-75
2023/04/09 05:10:33;;;;;;;58.30;29.53;;;0.80;99.90;1.20;94565.00;;;;7406470;19;20145;-75
2023/04/09 05:13:07;;;;;;;60.60;27.87;;;0.80;99.90;1.20;94567.00;;;;7401459;19;20128;-76
2023/04/09 05:15:41;;;;;;;57.40;29.23;;;0.70;99.90;1.20;94512.00;;;;7402647;19;20471;-75
2023/04/09 05:18:15;;;;;;;59.97;28.97;;;0.70;99.90;1.20;94563.00;;;;7404786;19;20132;-75
2023/04/09 05:20:49;;;;;;;55.37;27.97;;;0.70;99.90;1.20;94571.00;;;;7404863;19;20599;-75
2023/04/09 05:23:17;;;;;;;57.37;28.30;;;0.70;99.90;1.30;94577.00;;;;7397567;19;20158;-79
2023/04/09 05:25:51;;;;;;;60.57;30.67;;;0.70;99.90;1.40;94581.00;;;;7382297;19;20563;-78
2023/04/09 05:28:25;;;;;;;58.70;29.00;;;0.80;99.90;1.40;94575.00;;;;7378456;19;20651;-77
2023/04/09 05:30:52;;;;;;;59.47;30.37;;;0.90;99.90;1.70;94513.00;;;;7384180;19;20148;-74
2023/04/09 05:33:26;;;;;;;62.23;31.10;;;1.00;99.90;1.90;94576.00;;;;7387483;19;20202;-75
2023/04/09 05:36:02;;;;;;;74.03;35.37;;;1.20;99.90;2.30;94526.00;;;;7386627;19;20596;-73
2023/04/09 05:38:50;;;;;;;66.97;34.47;;;1.50;99.90;2.50;94522.00;;;;7386516;19;20211;-77
2023/04/09 05:41:24;;;;;;;68.40;33.90;;;1.80;99.90;2.70;94572.00;;;;7385308;19;20474;-75
2023/04/09 05:43:54;;;;;;;78.90;37.97;;;2.00;99.90;3.00;94528.00;;;;7386458;19;20148;-77
2023/04/09 05:46:27;;;;;;;73.90;38.20;;;2.20;99.90;3.30;94549.00;;;;7385019;19;20692;-76
2023/04/09 05:49:02;;;;;;;76.37;38.63;;;2.40;99.90;3.60;94549.00;;;;7383196;19;20212;-77
2023/04/09 05:51:35;;;;;;;73.03;38.23;;;2.70;99.90;3.90;94499.00;;;;7384033;19;20136;-74
2023/04/09 05:54:03;;;;;;;84.23;39.57;;;2.90;99.90;4.20;94604.00;;;;7386583;19;20616;-77
2023/04/09 05:56:30;;;;;;;76.07;38.37;;;3.10;99.90;4.50;94586.00;;;;7383634;19;20133;-75
2023/04/09 05:59:03;;;;;;;67.03;36.43;;;3.30;99.90;4.60;94583.00;;;;7385633;19;20121;-75
2023/04/09 06:01:30;;;;;;;72.20;38.00;;;3.40;99.90;4.60;94563.00;;;;7384761;19;20152;-74
2023/04/09 06:04:13;;;;;;;76.33;37.53;;;3.50;99.90;4.70;94534.00;;;;7383478;19;20193;-74
2023/04/09 06:06:40;;;;;;;63.83;33.03;;;3.50;99.90;4.50;94556.00;;;;7382480;19;20213;-77
2023/04/09 06:09:17;;;;;;;64.60;34.37;;;3.50;99.90;4.30;94567.00;;;;7382688;19;20175;-76
2023/04/09 06:11:44;;;;;;;63.37;34.63;;;3.50;99.90;4.40;94578.00;;;;7382159;19;20464;-75
2023/04/09 06:14:18;;;;;;;58.00;32.20;;;3.40;99.90;4.50;94559.00;;;;7381712;19;20188;-75
2023/04/09 06:16:45;;;;;;;58.13;32.53;;;3.50;99.90;4.70;94600.00;;;;7381429;19;20152;-76
2023/04/09 06:19:19;;;;;;;54.17;33.90;;;3.50;99.90;4.70;94588.00;;;;7382601;19;20172;-73
2023/04/09 06:21:55;;;;;;;53.17;30.60;;;3.60;1.00;5.00;94577.00;;;;7384256;19;20133;-78
2023/04/09 06:24:22;;;;;;;52.47;31.03;;;3.70;1.00;5.00;94569.00;;;;7383899;19;20153;-75
2023/04/09 06:26:56;;;;;;;51.17;28.90;;;3.80;1.00;5.40;94580.00;;;;7378310;19;20149;-75
2023/04/09 06:29:24;;;;;;;51.77;29.00;;;3.90;1.00;5.80;94544.00;;;;7383947;19;20148;-73
2023/04/09 06:31:58;;;;;;;43.63;27.23;;;3.90;1.00;6.10;94523.00;;;;7382588;19;20144;-74
2023/04/09 06:34:32;;;;;;;43.47;27.33;;;3.90;1.00;6.50;94583.00;;;;7384906;19;20565;-73
2023/04/09 06:36:59;;;;;;;43.10;26.40;;;4.10;99.90;7.00;94526.00;;;;7381991;19;20181;-75
2023/04/09 06:39:35;;;;;;;41.63;28.03;;;4.20;99.90;7.70;94590.00;;;;7379741;19;20129;-73
2023/04/09 06:42:04;;;;;;;43.53;28.47;;;4.50;99.90;8.10;94543.00;;;;7377997;19;20722;-73
2023/04/09 06:44:39;;;;;;;36.00;23.80;;;4.70;99.90;8.00;94544.00;;;;7382840;19;20148;-76
2023/04/09 06:47:08;;;;;;;33.83;23.20;;;4.90;99.90;8.10;94573.00;;;;7379885;19;20137;-75
2023/04/09 06:49:41;;;;;;;32.20;21.13;;;5.00;1.00;8.30;94596.00;;;;7383673;19;20203;-73
2023/04/09 06:52:08;;;;;;;27.60;19.63;;;5.20;1.00;8.70;94586.00;;;;7381556;19;20148;-75
2023/04/09 06:54:44;;;;;;;25.83;19.40;;;5.30;1.00;8.50;94545.00;;;;7384580;19;20200;-75
2023/04/09 06:57:19;;;;;;;20.13;15.63;;;5.50;99.90;8.50;94555.00;;;;7381358;19;20160;-75
2023/04/09 06:59:53;;;;;;;23.23;16.60;;;5.60;1.00;8.60;94591.00;;;;7382959;19;20812;-76
2023/04/09 07:02:41;;;;;;;21.43;15.33;;;5.80;1.00;8.70;94577.00;;;;7375833;19;20176;-76
2023/04/09 07:05:16;;;;;;;21.40;15.33;;;5.60;1.00;8.30;94592.00;;;;7380895;19;20137;-75
2023/04/09 07:07:50;;;;;;;23.30;16.07;;;5.70;1.00;8.20;94589.00;;;;7382787;19;20603;-73
2023/04/09 07:10:17;;;;;;;23.33;16.17;;;5.90;41.20;8.20;94590.00;;;;7381259;19;20125;-74
2023/04/09 07:12:50;;;;;;;22.33;17.03;;;6.20;1.00;9.00;94580.00;;;;7377237;19;20139;-75
2023/04/09 07:15:20;;;;;;;19.20;14.60;;;6.40;1.00;9.30;94591.00;;;;7380951;19;20149;-76
2023/04/09 07:17:56;;;;;;;17.00;12.93;;;6.60;99.90;9.40;94555.00;;;;7380781;19;20142;-76
2023/04/09 07:20:31;;;;;;;17.30;13.05;;;6.80;1.00;9.50;94591.00;;;;7377586;19;20568;-73
2023/04/09 07:22:58;;;;;;;15.90;12.65;;;6.90;99.90;10.00;94583.00;;;;7380153;19;20136;-75
2023/04/09 07:25:33;;;;;;;16.48;12.57;;;6.90;99.90;9.70;94596.00;;;;7380211;19;20140;-76
2023/04/09 07:28:04;;;;;;;14.68;12.20;;;7.20;99.90;9.40;94585.00;;;;7379933;19;20152;-77
2023/04/09 07:30:40;;;;;;;16.70;12.70;;;7.30;99.90;9.40;94585.00;;;;7378246;19;20516;-86
2023/04/09 07:33:13;;;;;;;17.80;13.15;;;7.50;99.90;10.00;94608.00;;;;7380053;19;20166;-77
2023/04/09 07:35:47;;;;;;;16.73;12.43;;;7.70;33.90;10.40;94603.00;;;;7380339;19;20196;-74
2023/04/09 07:38:22;;;;;;;14.30;11.98;;;7.80;1.00;10.70;94604.00;;;;7379832;19;20139;-75
2023/04/09 07:40:55;;;;;;;13.07;9.50;;;7.80;1.00;11.10;94582.00;;;;7381419;19;20145;-75
2023/04/09 07:43:31;;;;;;;11.15;9.23;;;8.10;1.00;11.00;94608.00;;;;7379688;19;20480;-76
2023/04/09 07:46:07;;;;;;;14.23;10.13;;;8.20;99.90;10.80;94602.00;;;;7379914;19;20127;-75
2023/04/09 07:48:40;;;;;;;13.93;11.07;;;8.30;99.90;10.80;94579.00;;;;7378596;19;20133;-75
2023/04/09 07:51:08;;;;;;;11.30;9.43;;;8.30;99.90;10.50;94578.00;;;;7379557;19;21520;-75
2023/04/09 07:53:41;;;;;;;10.75;8.30;;;8.40;99.90;10.80;94610.00;;;;7378886;19;20120;-74
2023/04/09 07:56:08;;;;;;;10.77;8.98;;;8.60;99.90;10.90;94607.00;;;;7380937;19;20158;-75
2023/04/09 07:58:43;;;;;;;12.95;9.63;;;8.70;51.90;10.70;94584.00;;;;7379178;19;20567;-75
2023/04/09 08:01:23;;;;;;;13.05;10.35;;;8.80;50.50;10.80;94617.00;;;;7379348;19;20240;-73
2023/04/09 08:03:57;;;;;;;14.27;11.35;;;8.80;16.10;10.20;94616.00;;;;7380080;19;20608;-75
2023/04/09 08:06:37;;;;;;;14.15;11.85;;;8.50;22.50;10.80;94589.00;;;;7376609;19;20137;-75
2023/04/09 08:09:12;;;;;;;15.63;12.18;;;8.60;70.60;11.30;94606.00;;;;7383895;19;20133;-74
2023/04/09 08:11:49;;;;;;;16.30;12.25;;;8.80;30.70;11.70;94645.00;;;;7378215;19;20492;-73
2023/04/09 08:14:17;;;;;;;12.63;10.45;;;9.30;43.40;11.30;94625.00;;;;7375584;19;22966;-75
2023/04/09 08:16:51;;;;;;;9.13;7.97;;;9.10;1.00;10.60;94591.00;;;;7375836;19;20656;-75
2023/04/09 08:19:19;;;;;;;12.32;8.90;;;8.90;1.00;11.30;94611.00;;;;7376505;19;21598;-76
2023/04/09 08:21:52;;;;;;;9.73;8.15;;;9.10;1.00;11.40;94632.00;;;;7376333;19;20148;-75
2023/04/09 08:24:22;;;;;;;7.88;6.38;;;9.20;1.00;10.70;94606.00;;;;7369153;19;20129;-75
2023/04/09 08:26:58;;;;;;;8.45;7.40;;;9.10;1.00;10.80;94615.00;;;;7377056;19;20619;-73
2023/04/09 08:29:28;;;;;;;8.77;6.78;;;9.00;1.00;10.40;94579.00;;;;7376473;19;20588;-72
2023/04/09 08:32:03;;;;;;;9.20;7.47;;;8.80;1.00;9.80;94638.00;;;;7376901;19;20161;-75
2023/04/09 08:34:32;;;;;;;10.07;8.15;;;8.70;1.00;9.40;94598.00;;;;7341914;19;20564;-76
2023/04/09 08:37:09;;;;;;;8.20;6.97;;;8.40;1.00;9.60;94596.00;;;;7366325;19;20152;-76
2023/04/09 08:39:36;;;;;;;7.65;6.25;;;8.30;1.00;9.20;94601.00;;;;7377800;19;20145;-75
2023/04/09 08:42:13;;;;;;;8.70;6.50;;;8.20;1.00;10.70;94627.00;;;;7377851;19;20124;-75
2023/04/09 08:44:42;;;;;;;8.38;6.55;;;8.50;1.00;9.90;94632.00;;;;7376766;19;20489;-76
2023/04/09 08:47:16;;;;;;;7.20;6.15;;;8.60;1.00;9.50;94575.00;;;;7371177;19;20144;-75
2023/04/09 08:49:50;;;;;;;6.28;5.50;;;8.50;1.00;10.30;94584.00;;;;7376287;19;20180;-76
2023/04/09 08:52:34;;;;;;;6.18;5.57;;;8.70;1.00;12.20;94599.00;;;;7373807;19;20684;-76
2023/04/09 08:55:11;;;;;;;6.38;5.53;;;9.40;1.00;13.10;94618.00;;;;7377073;19;20495;-77
2023/04/09 08:57:42;;;;;;;9.90;6.93;;;10.10;1.00;14.00;94627.00;;;;7377677;19;20484;-76
2023/04/09 09:00:16;;;;;;;5.57;5.07;;;10.60;1.00;13.20;94640.00;;;;7376245;19;20147;-76
2023/04/09 09:03:14;;;;;;;5.88;5.35;;;10.70;1.00;11.70;94632.00;;;;7375084;19;20179;-73
2023/04/09 09:05:55;;;;;;;5.40;4.90;;;10.50;1.00;10.50;94605.00;;;;7371991;19;20620;-74
2023/04/09 09:08:25;;;;;;;7.55;5.45;;;10.10;1.00;11.00;94627.00;;;;7378227;19;20152;-76
2023/04/09 09:10:59;;;;;;;8.25;6.10;;;10.00;1.00;11.20;94651.00;;;;7377591;19;20128;-75
2023/04/09 09:13:28;;;;;;;6.05;5.25;;;9.90;1.00;10.60;94651.00;;;;7378124;19;20141;-75
2023/04/09 09:16:14;;;;;;;6.30;5.55;;;9.70;1.00;10.20;94647.00;;;;7375625;19;20121;-74
2023/04/09 09:18:43;;;;;;;6.90;6.05;;;9.70;1.00;10.60;94607.00;;;;7372422;19;20163;-74
2023/04/09 09:21:21;;;;;;;6.13;5.53;;;9.70;1.00;13.10;94606.00;;;;7377971;19;20465;-75
2023/04/09 09:23:49;;;;;;;5.53;4.75;;;10.40;1.00;15.20;94597.00;;;;7374137;19;20209;-73
2023/04/09 09:26:28;;;;;;;4.72;3.63;;;11.60;1.00;15.10;94561.00;;;;7374619;19;20454;-74
2023/04/09 09:29:04;;;;;;;3.40;3.10;;;12.10;1.00;15.90;94603.00;;;;7377992;19;21290;-75
2023/04/09 09:31:52;;;;;;;2.67;2.47;;;12.60;1.00;14.40;94611.00;;;;7378161;19;20672;-74
2023/04/09 09:34:25;;;;;;;3.10;2.80;;;12.40;1.00;14.10;94572.00;;;;7379656;19;20153;-76
2023/04/09 09:36:52;;;;;;;3.85;3.35;;;12.20;1.00;13.50;94586.00;;;;7382895;19;20487;-75
2023/04/09 09:39:43;;;;;;;4.68;3.65;;;11.80;1.00;12.60;94637.00;;;;7384599;19;20131;-75
2023/04/09 09:42:16;;;;;;;6.68;5.05;;;11.70;1.00;12.10;94657.00;;;;7384128;19;20588;-76
2023/04/09 09:44:52;;;;;;;7.03;4.43;;;11.00;1.00;12.90;94613.00;;;;7386683;19;20484;-76
2023/04/09 09:47:28;;;;;;;4.80;4.22;;;11.20;1.00;13.70;94632.00;;;;7379809;19;20132;-75
2023/04/09 09:50:02;;;;;;;3.25;2.80;;;11.80;1.00;12.20;94646.00;;;;7385170;19;20125;-76
2023/04/09 09:52:39;;;;;;;2.80;2.53;;;11.30;1.00;11.00;94638.00;;;;7383995;19;20150;-77
2023/04/09 09:55:16;;;;;;;3.03;2.65;;;10.80;1.00;11.10;94653.00;;;;7385629;19;20603;-75
2023/04/09 09:57:46;;;;;;;3.22;2.90;;;10.50;1.00;11.20;94607.00;;;;7382539;19;20145;-74
2023/04/09 10:00:24;;;;;;;3.63;3.22;;;10.40;1.00;11.50;94627.00;;;;7383992;19;20651;-78
2023/04/09 10:03:14;;;;;;;3.20;2.90;;;10.30;1.00;10.90;94666.00;;;;7385250;19;20208;-77
2023/04/09 10:05:56;;;;;;;3.47;3.05;;;10.10;1.00;10.90;94641.00;;;;7383172;19;22769;-79
2023/04/09 10:08:24;;;;;;;5.13;3.70;;;10.10;1.00;11.50;94527.00;;;;7381279;19;20187;-77
2023/04/09 10:10:57;;;;;;;3.08;2.67;;;10.20;1.00;11.70;94646.00;;;;7384069;19;20133;-76
2023/04/09 10:13:40;;;;;;;4.80;3.42;;;10.40;1.00;11.80;94654.00;;;;7384692;19;20200;-76
2023/04/09 10:16:16;;;;;;;3.90;3.22;;;10.30;1.00;11.50;94650.00;;;;7381456;19;20121;-77
2023/04/09 10:18:50;;;;;;;3.70;2.95;;;10.30;1.00;11.40;94656.00;;;;7382701;19;20542;-75
2023/04/09 10:21:56;;;;;;;3.67;3.10;;;10.40;1.00;11.30;94668.00;;;;7382883;19;20188;-75
2023/04/09 10:24:33;;;;;;;4.47;3.03;;;10.40;1.00;11.20;94646.00;;;;7385248;19;20133;-74
2023/04/09 10:27:15;;;;;;;3.53;3.17;;;10.40;1.00;11.20;94643.00;;;;7382153;19;20154;-75
2023/04/09 10:29:50;;;;;;;5.35;4.47;;;10.20;1.00;10.80;94634.00;;;;7379392;19;20480;-75
2023/04/09 10:32:33;;;;;;;3.95;3.05;;;10.20;1.00;11.40;94600.00;;;;7384582;19;20156;-79
2023/04/09 10:35:09;;;;;;;4.90;3.33;;;10.30;1.00;11.40;94656.00;;;;7384387;19;20211;-78
2023/04/09 10:37:49;;;;;;;4.18;3.30;;;10.50;1.00;11.30;94647.00;;;;7379299;19;20152;-78
2023/04/09 10:40:26;;;;;;;5.10;3.40;;;10.50;1.00;11.10;94655.00;;;;7379356;19;20136;-76
2023/04/09 10:42:56;;;;;;;4.57;3.05;;;10.20;1.00;10.90;94650.00;;;;7380504;19;20983;-78
2023/04/09 10:45:41;;;;;;;3.08;2.78;;;10.10;1.00;11.00;94644.00;;;;7378451;19;20152;-76
2023/04/09 10:48:13;;;;;;;4.32;3.05;;;10.20;1.00;10.80;94643.00;;;;7373706;19;20148;-77
2023/04/09 10:50:52;;;;;;;4.78;3.78;;;10.10;1.00;10.70;94615.00;;;;7378762;19;20171;-76
2023/04/09 10:53:23;;;;;;;4.82;3.60;;;10.10;1.00;11.10;94630.00;;;;7372242;19;20606;-74
2023/04/09 10:55:57;;;;;;;3.90;3.50;;;10.20;1.00;11.30;94633.00;;;;7377891;19;20168;-76
2023/04/09 10:58:24;;;;;;;8.32;4.13;;;10.40;1.00;11.70;94633.00;;;;7378948;19;20129;-76
2023/04/09 11:01:01;;;;;;;3.92;3.42;;;10.70;1.00;11.70;94607.00;;;;7377525;19;20173;-73
2023/04/09 11:04:03;;;;;;;5.90;4.60;;;10.80;1.00;11.40;94627.00;;;;7377442;19;20738;-74
2023/04/09 11:06:43;;;;;;;4.15;3.75;;;10.50;1.00;10.90;94626.00;;;;7378294;19;20212;-74
2023/04/09 11:09:11;;;;;;;4.65;4.10;;;10.20;1.00;10.90;94615.00;;;;7377966;19;20572;-76
2023/04/09 11:11:52;;;;;;;5.90;4.60;;;10.10;1.00;10.40;94609.00;;;;7378789;19;20168;-74
2023/04/09 11:14:20;;;;;;;5.25;4.30;;;9.90;1.00;10.30;94622.00;;;;7374284;19;20175;-75
2023/04/09 11:16:55;;;;;;;6.18;5.00;;;9.80;1.00;10.70;94609.00;;;;7375986;19;20489;-77
2023/04/09 11:19:22;;;;;;;5.05;4.55;;;9.90;1.00;11.10;94614.00;;;;7379731;19;20134;-77
2023/04/09 11:21:57;;;;;;;5.00;4.50;;;10.00;1.00;11.10;94589.00;;;;7376588;19;20133;-77
2023/04/09 11:24:45;;;;;;;10.15;5.93;;;10.10;1.00;11.10;94594.00;;;;7377953;19;20148;-75
2023/04/09 11:27:13;;;;;;;9.27;6.10;;;10.10;1.00;10.60;94624.00;;;;7379016;19;20160;-76
2023/04/09 11:29:57;;;;;;;7.40;5.03;;;10.00;1.00;10.90;94644.00;;;;7377931;19;20149;-76